createdAt,value
2022-11-28T00:10:02.345Z,11.27
2022-11-28T00:20:07.046Z,9.17
2022-11-28T00:30:12.761Z,9.40
2022-11-28T00:40:15.876Z,9.40
2022-11-28T00:50:20.440Z,9.30
2022-11-28T01:00:23.688Z,8.23
2022-11-28T01:10:28.139Z,9.00
2022-11-28T01:20:31.145Z,10.00
2022-11-28T01:30:35.982Z,9.57
2022-11-28T01:40:45.890Z,7.27
2022-11-28T01:50:53.804Z,7.33
2022-11-28T02:00:57.023Z,6.47
2022-11-28T02:11:14.590Z,6.63
2022-11-28T02:21:35.220Z,7.93
2022-11-28T02:32:08.780Z,6.93
2022-11-28T02:42:19.466Z,6.70
2022-11-28T02:52:27.458Z,6.50
2022-11-28T03:02:34.160Z,6.20
2022-11-28T03:12:51.941Z,7.17
2022-11-28T03:23:08.037Z,8.63
2022-11-28T03:33:11.766Z,6.60
2022-11-28T03:43:22.984Z,6.17
2022-11-28T03:53:30.142Z,7.20
2022-11-28T04:03:42.430Z,7.87
2022-11-28T04:13:53.370Z,6.47
2022-11-28T04:24:03.655Z,6.23
2022-11-28T04:34:09.882Z,6.27
2022-11-28T04:44:18.102Z,6.33
2022-11-28T04:54:26.421Z,8.33
2022-11-28T05:04:31.104Z,5.80
2022-11-28T05:14:34.121Z,6.20
2022-11-28T05:24:38.784Z,5.80
2022-11-28T05:34:42.163Z,6.20
2022-11-28T05:44:47.809Z,6.17
2022-11-28T05:54:50.842Z,5.97
2022-11-28T06:04:55.247Z,4.90
2022-11-28T06:14:58.387Z,5.37
2022-11-28T06:25:02.839Z,6.20
2022-11-28T06:35:06.465Z,5.03
2022-11-28T06:45:11.829Z,4.70
2022-11-28T06:55:14.940Z,6.90
2022-11-28T07:05:22.864Z,4.83
2022-11-28T07:15:26.690Z,8.23
2022-11-28T07:25:31.095Z,5.40
2022-11-28T07:35:34.996Z,4.67
2022-11-28T07:45:59.231Z,4.67
2022-11-28T07:56:04.701Z,5.50
2022-11-28T08:06:09.891Z,4.40
2022-11-28T08:16:15.376Z,4.70
2022-11-28T08:26:23.900Z,4.30
2022-11-28T08:36:29.591Z,5.23
2022-11-28T08:46:35.487Z,4.17
2022-11-28T08:56:38.560Z,7.20
2022-11-28T09:06:43.026Z,6.20
2022-11-28T09:16:46.209Z,5.00
2022-11-28T09:26:50.676Z,4.90
2022-11-28T09:36:53.655Z,4.80
2022-11-28T09:47:03.355Z,6.60
2022-11-28T09:57:15.109Z,5.17
2022-11-28T10:07:23.976Z,7.07
2022-11-28T10:17:37.904Z,5.23
2022-11-28T10:27:42.691Z,10.50
2022-11-28T10:37:45.804Z,6.53
2022-11-28T10:48:38.397Z,9.00
2022-11-28T10:58:43.777Z,5.43
2022-11-28T11:08:49.218Z,5.00
2022-11-28T11:18:55.095Z,6.67
2022-11-28T11:28:59.469Z,5.63
2022-11-28T11:39:22.934Z,6.23
2022-11-28T11:49:32.023Z,5.57
2022-11-28T11:59:41.558Z,5.90
2022-11-28T12:09:49.513Z,5.03
2022-11-28T12:20:06.168Z,5.90
2022-11-28T12:30:25.604Z,4.67
2022-11-28T12:40:37.042Z,6.40
2022-11-28T12:50:44.924Z,5.20
2022-11-28T13:00:55.807Z,6.70
2022-11-28T13:11:07.528Z,7.40
2022-11-28T13:21:23.088Z,5.50
2022-11-28T13:31:34.961Z,6.17
2022-11-28T13:42:13.923Z,5.60
2022-11-28T13:52:42.349Z,5.53
2022-11-28T14:02:47.382Z,6.00
2022-11-28T14:13:04.964Z,5.30
2022-11-28T14:23:20.492Z,4.73
2022-11-28T14:33:27.757Z,5.60
2022-11-28T14:43:31.680Z,6.77
2022-11-28T14:53:44.541Z,5.80
2022-11-28T15:03:58.255Z,6.07
2022-11-28T15:14:12.048Z,6.47
2022-11-28T15:24:25.881Z,6.50
2022-11-28T15:34:32.174Z,6.13
2022-11-28T15:44:37.686Z,9.23
2022-11-28T15:54:43.855Z,4.30
2022-11-28T16:04:47.779Z,4.97
2022-11-28T16:14:55.345Z,2.73
2022-11-28T16:25:00.012Z,4.73
2022-11-28T16:35:04.950Z,3.33
2022-11-28T16:45:10.854Z,6.37
2022-11-28T16:55:46.272Z,2.23
2022-11-28T17:05:49.375Z,9.30
2022-11-28T17:15:53.946Z,7.80
2022-11-28T17:25:56.985Z,2.83
2022-11-28T17:36:02.953Z,8.20
2022-11-28T17:46:06.309Z,5.20
2022-11-28T17:56:13.285Z,2.20
2022-11-28T18:06:17.577Z,2.77
2022-11-28T18:16:25.305Z,3.87
2022-11-28T18:26:28.438Z,3.50
2022-11-28T18:36:35.074Z,5.47
2022-11-28T18:46:39.685Z,16.13
2022-11-28T18:56:44.078Z,11.20
2022-11-28T19:06:48.518Z,5.10
2022-11-28T19:16:54.054Z,2.60
2022-11-28T19:26:57.127Z,4.03
2022-11-28T19:37:01.527Z,5.50
2022-11-28T19:47:06.727Z,3.70
2022-11-28T19:57:11.315Z,2.00
2022-11-28T20:07:14.413Z,2.20
2022-11-28T20:17:18.840Z,2.13
2022-11-28T20:27:21.871Z,1.90
2022-11-28T20:37:26.291Z,2.27
2022-11-28T20:47:29.282Z,1.30
2022-11-28T20:57:33.730Z,1.50
2022-11-28T21:07:36.778Z,1.20
2022-11-28T21:17:41.255Z,1.77
2022-11-28T21:27:44.310Z,1.67
2022-11-28T21:37:48.676Z,1.53
2022-11-28T21:47:51.764Z,1.50
2022-11-28T21:57:56.158Z,2.43
2022-11-28T22:07:59.287Z,1.77
2022-11-28T22:18:03.717Z,1.77
2022-11-28T22:28:06.700Z,2.47
2022-11-28T22:38:11.157Z,1.30
2022-11-28T22:48:14.244Z,1.20
2022-11-28T22:58:18.626Z,1.10
2022-11-28T23:08:21.669Z,3.80
2022-11-28T23:18:26.032Z,1.53
2022-11-28T23:28:29.935Z,0.83
2022-11-28T23:38:34.318Z,1.20
2022-11-28T23:48:38.004Z,1.10
2022-11-28T23:58:42.892Z,1.13
